createdAt,value
2018-04-16T00:00:14.756Z,21.07
2018-04-16T00:02:44.705Z,20.47
2018-04-16T00:05:14.556Z,20.67
2018-04-16T00:07:43.628Z,19.47
2018-04-16T00:10:12.737Z,18.63
2018-04-16T00:12:41.816Z,19.60
2018-04-16T00:15:10.923Z,20.40
2018-04-16T00:17:40.477Z,18.63
2018-04-16T00:20:10.420Z,19.17
2018-04-16T00:22:40.297Z,20.10
2018-04-16T00:25:09.413Z,16.37
2018-04-16T00:27:38.559Z,19.27
2018-04-16T00:30:08.437Z,19.00
2018-04-16T00:32:43.155Z,18.27
2018-04-16T00:35:17.896Z,18.47
2018-04-16T00:37:52.616Z,20.47
2018-04-16T00:40:28.019Z,20.20
2018-04-16T00:43:02.613Z,19.10
2018-04-16T00:45:38.115Z,18.13
2018-04-16T00:48:12.829Z,22.10
2018-04-16T00:50:48.274Z,20.30
2018-04-16T00:53:23.017Z,19.47
2018-04-16T00:55:58.841Z,19.67
2018-04-16T01:01:37.863Z,21.13
2018-04-16T01:04:12.600Z,21.17
2018-04-16T01:06:47.292Z,20.93
2018-04-16T01:09:21.899Z,21.23
2018-04-16T01:11:57.487Z,21.13
2018-04-16T01:14:32.364Z,20.47
2018-04-16T01:17:07.134Z,22.13
2018-04-16T01:19:42.086Z,20.37
2018-04-16T01:22:16.918Z,21.20
2018-04-16T01:24:51.581Z,21.70
2018-04-16T01:30:31.214Z,22.53
2018-04-16T01:33:05.836Z,22.73
2018-04-16T01:35:40.429Z,21.17
2018-04-16T01:38:15.155Z,22.33
2018-04-16T01:40:49.915Z,21.40
2018-04-16T01:46:31.171Z,22.80
2018-04-16T01:49:05.871Z,20.57
2018-04-16T01:51:40.632Z,24.50
2018-04-16T01:54:16.124Z,22.83
2018-04-16T01:59:54.319Z,23.83
2018-04-16T02:02:28.908Z,22.77
2018-04-16T02:05:03.716Z,23.53
2018-04-16T02:07:38.406Z,24.40
2018-04-16T02:13:21.507Z,26.67
2018-04-16T02:15:56.186Z,26.60
2018-04-16T02:18:30.771Z,24.47
2018-04-16T02:21:06.413Z,24.97
2018-04-16T02:23:41.208Z,24.53
2018-04-16T02:26:15.901Z,24.83
2018-04-16T02:28:50.544Z,25.27
2018-04-16T02:31:25.239Z,24.53
2018-04-16T02:34:00.006Z,25.85
2018-04-16T02:36:34.668Z,23.50
2018-04-16T02:39:09.337Z,26.42
2018-04-16T02:41:44.021Z,25.70
2018-04-16T02:44:19.402Z,26.08
2018-04-16T02:46:54.400Z,26.80
2018-04-16T02:49:29.146Z,26.37
2018-04-16T02:52:03.939Z,26.00
2018-04-16T02:54:38.851Z,25.80
2018-04-16T02:57:13.537Z,25.20
2018-04-16T02:59:48.285Z,26.20
2018-04-16T03:02:23.020Z,26.17
2018-04-16T03:04:57.643Z,25.40
2018-04-16T03:07:32.347Z,25.10
2018-04-16T03:10:07.131Z,26.57
2018-04-16T03:12:41.938Z,26.87
2018-04-16T03:15:16.568Z,25.43
2018-04-16T03:17:51.305Z,25.97
2018-04-16T03:20:26.783Z,27.17
2018-04-16T03:23:01.292Z,25.90
2018-04-16T03:25:36.940Z,26.67
2018-04-16T03:28:11.444Z,26.13
2018-04-16T03:30:46.161Z,25.30
2018-04-16T03:33:20.680Z,24.43
2018-04-16T03:35:56.008Z,26.30
2018-04-16T03:38:30.627Z,24.90
2018-04-16T03:41:05.490Z,25.90
2018-04-16T03:43:40.402Z,25.30
2018-04-16T03:46:15.461Z,25.37
2018-04-16T03:48:50.052Z,24.73
2018-04-16T03:51:21.461Z,25.03
2018-04-16T03:53:50.551Z,27.83
2018-04-16T03:56:19.628Z,27.50
2018-04-16T03:58:48.736Z,26.63
2018-04-16T04:01:17.935Z,25.60
2018-04-16T04:03:46.994Z,26.87
2018-04-16T04:06:16.159Z,25.57
2018-04-16T04:08:45.244Z,27.20
2018-04-16T04:11:14.358Z,28.30
2018-04-16T04:13:43.444Z,27.47
2018-04-16T04:16:12.655Z,27.20
2018-04-16T04:18:41.776Z,26.40
2018-04-16T04:21:10.884Z,27.73
2018-04-16T04:23:57.917Z,27.63
2018-04-16T04:26:44.883Z,29.00
2018-04-16T04:29:31.953Z,27.87
2018-04-16T04:32:01.832Z,28.17
2018-04-16T04:34:31.727Z,29.60
2018-04-16T04:37:00.839Z,29.10
2018-04-16T04:39:29.949Z,27.57
2018-04-16T04:41:59.034Z,26.77
2018-04-16T04:44:28.964Z,28.00
2018-04-16T04:46:58.810Z,28.50
2018-04-16T04:49:27.883Z,27.90
2018-04-16T04:51:56.966Z,27.20
2018-04-16T04:54:26.119Z,27.67
2018-04-16T04:56:56.001Z,28.93
2018-04-16T04:59:25.881Z,27.33
2018-04-16T05:01:55.751Z,28.60
2018-04-16T05:04:24.937Z,29.07
2018-04-16T05:06:54.017Z,26.53
2018-04-16T05:09:23.136Z,28.60
2018-04-16T05:11:52.983Z,29.63
2018-04-16T05:14:22.063Z,29.77
2018-04-16T05:16:51.171Z,27.60
2018-04-16T05:19:20.280Z,29.37
2018-04-16T05:21:49.703Z,29.30
2018-04-16T05:24:18.786Z,29.03
2018-04-16T05:26:47.951Z,29.33
2018-04-16T05:29:17.090Z,28.67
2018-04-16T05:31:46.169Z,28.67
2018-04-16T05:34:15.273Z,29.47
2018-04-16T05:36:45.124Z,31.37
2018-04-16T05:39:14.235Z,29.87
2018-04-16T05:41:43.316Z,30.10
2018-04-16T05:44:13.159Z,30.50
2018-04-16T05:46:42.272Z,30.17
2018-04-16T05:49:11.355Z,30.30
2018-04-16T05:51:41.233Z,31.47
2018-04-16T05:54:10.354Z,29.80
2018-04-16T05:56:39.437Z,30.90
2018-04-16T05:59:08.548Z,32.00
2018-04-16T06:01:37.672Z,30.23
2018-04-16T06:04:06.784Z,30.30
2018-04-16T06:06:35.942Z,30.97
2018-04-16T06:09:05.881Z,32.10
2018-04-16T06:11:35.776Z,31.43
2018-04-16T06:14:04.894Z,31.70
2018-04-16T06:16:33.975Z,31.23
2018-04-16T06:19:03.088Z,30.87
2018-04-16T06:21:32.352Z,32.07
2018-04-16T06:24:02.231Z,29.10
2018-04-16T06:26:31.354Z,29.70
2018-04-16T06:31:14.315Z,28.90
2018-04-16T06:33:43.395Z,28.67
2018-04-16T06:36:12.508Z,31.00
2018-04-16T06:38:41.620Z,28.67
2018-04-16T06:41:10.735Z,29.27
2018-04-16T06:43:39.923Z,29.73
2018-04-16T06:46:09.011Z,29.67
2018-04-16T06:48:38.128Z,29.67
2018-04-16T06:51:07.999Z,29.40
2018-04-16T06:53:37.218Z,31.10
2018-04-16T06:56:06.303Z,30.57
2018-04-16T06:58:35.407Z,31.50
2018-04-16T07:01:04.568Z,31.97
2018-04-16T07:03:33.661Z,29.73
2018-04-16T07:06:02.786Z,29.63
2018-04-16T07:08:31.930Z,30.27
2018-04-16T07:11:01.856Z,30.30
2018-04-16T07:13:31.772Z,30.17
2018-04-16T07:16:00.918Z,29.90
2018-04-16T07:18:30.004Z,30.70
2018-04-16T07:20:59.092Z,32.03
2018-04-16T07:23:28.259Z,32.83
2018-04-16T07:25:57.348Z,32.20
2018-04-16T07:28:27.186Z,32.23
2018-04-16T07:30:56.299Z,32.40
2018-04-16T07:33:25.417Z,32.33
2018-04-16T07:35:54.518Z,32.20
2018-04-16T07:38:24.367Z,34.00
2018-04-16T07:40:53.548Z,34.53
2018-04-16T07:43:23.486Z,34.93
2018-04-16T07:45:53.364Z,36.63
2018-04-16T07:48:22.454Z,35.07
2018-04-16T07:50:51.530Z,36.97
2018-04-16T07:53:21.436Z,35.83
2018-04-16T07:55:50.514Z,36.90
2018-04-16T07:58:19.615Z,33.17
2018-04-16T08:00:48.728Z,32.23
2018-04-16T08:03:17.896Z,32.70
2018-04-16T08:05:47.769Z,33.63
2018-04-16T08:08:17.820Z,33.83
2018-04-16T08:10:46.899Z,34.13
2018-04-16T08:13:16.008Z,33.23
2018-04-16T08:15:45.181Z,36.03
2018-04-16T08:18:15.055Z,34.27
2018-04-16T08:20:44.172Z,33.33
2018-04-16T08:23:13.283Z,31.80
2018-04-16T08:25:42.470Z,29.93
2018-04-16T08:28:11.585Z,32.97
2018-04-16T08:30:40.695Z,31.17
2018-04-16T08:33:09.812Z,32.43
2018-04-16T08:35:38.925Z,34.77
2018-04-16T08:38:08.043Z,32.07
2018-04-16T08:40:37.132Z,35.20
2018-04-16T08:43:06.466Z,33.03
2018-04-16T08:45:35.543Z,31.73
2018-04-16T08:48:05.467Z,32.57
2018-04-16T08:50:35.339Z,33.60
2018-04-16T08:53:04.488Z,33.60
2018-04-16T08:55:33.687Z,33.93
2018-04-16T08:58:02.792Z,35.63
2018-04-16T09:00:32.673Z,33.00
2018-04-16T09:03:01.789Z,33.37
2018-04-16T09:05:30.875Z,32.20
2018-04-16T09:08:00.746Z,35.93
2018-04-16T09:10:29.934Z,33.90
2018-04-16T09:12:59.048Z,36.23
2018-04-16T09:15:28.162Z,34.70
2018-04-16T09:17:58.019Z,35.30
2018-04-16T09:20:27.176Z,36.20
2018-04-16T09:22:57.031Z,34.20
2018-04-16T09:25:26.141Z,35.10
2018-04-16T09:27:55.289Z,35.87
2018-04-16T09:30:24.370Z,34.70
2018-04-16T09:32:53.475Z,34.30
2018-04-16T09:35:22.594Z,32.70
2018-04-16T09:37:51.714Z,34.97
2018-04-16T09:40:20.871Z,32.90
2018-04-16T09:42:49.952Z,36.60
2018-04-16T09:45:19.063Z,37.40
2018-04-16T09:47:48.915Z,38.90
2018-04-16T09:50:18.054Z,41.67
2018-04-16T09:52:47.941Z,41.63
2018-04-16T09:55:18.650Z,40.87
2018-04-16T09:57:47.760Z,39.30
2018-04-16T10:00:17.727Z,41.13
2018-04-16T10:02:52.340Z,39.47
2018-04-16T10:05:21.620Z,36.80
2018-04-16T10:07:52.283Z,37.50
2018-04-16T10:10:21.370Z,36.30
2018-04-16T10:12:51.272Z,34.37
2018-04-16T10:15:20.351Z,35.00
2018-04-16T10:17:49.464Z,32.90
2018-04-16T10:20:18.554Z,31.03
2018-04-16T10:22:47.673Z,30.53
2018-04-16T10:25:16.755Z,32.27
2018-04-16T10:27:46.637Z,30.40
2018-04-16T10:30:15.719Z,33.10
2018-04-16T10:32:44.795Z,35.07
2018-04-16T10:35:13.906Z,29.13
2018-04-16T10:37:43.820Z,30.67
2018-04-16T10:40:12.964Z,30.77
2018-04-16T10:42:42.172Z,27.17
2018-04-16T10:45:11.298Z,27.57
2018-04-16T10:47:40.432Z,28.67
2018-04-16T10:50:09.558Z,29.50
2018-04-16T10:52:38.681Z,29.13
2018-04-16T10:55:07.776Z,29.17
2018-04-16T10:57:36.889Z,30.23
2018-04-16T11:00:05.996Z,29.47
2018-04-16T11:02:35.492Z,30.90
2018-04-16T11:05:04.684Z,28.27
2018-04-16T11:07:33.807Z,29.87
2018-04-16T11:10:02.887Z,29.37
2018-04-16T11:12:32.735Z,28.90
2018-04-16T11:15:01.849Z,29.07
2018-04-16T11:17:30.979Z,28.67
2018-04-16T11:20:00.080Z,28.57
2018-04-16T11:22:29.444Z,28.77
2018-04-16T11:24:58.522Z,24.77
2018-04-16T11:27:27.628Z,23.83
2018-04-16T11:29:56.744Z,25.00
2018-04-16T11:32:25.853Z,26.63
2018-04-16T11:34:54.938Z,25.30
2018-04-16T11:37:24.056Z,25.30
2018-04-16T11:39:53.139Z,25.20
2018-04-16T11:42:23.015Z,24.10
2018-04-16T11:44:52.119Z,22.43
2018-04-16T11:47:21.271Z,23.33
2018-04-16T11:49:50.414Z,23.37
2018-04-16T11:52:20.313Z,19.90
2018-04-16T11:54:49.391Z,20.73
2018-04-16T11:57:18.520Z,21.50
2018-04-16T11:59:47.627Z,23.53
2018-04-16T12:02:16.793Z,23.20
2018-04-16T12:04:46.716Z,20.57
2018-04-16T12:07:15.792Z,20.63
2018-04-16T12:09:44.948Z,20.97
2018-04-16T12:12:14.035Z,19.20
2018-04-16T12:14:43.908Z,20.60
2018-04-16T12:17:13.340Z,19.10
2018-04-16T12:19:42.460Z,18.97
2018-04-16T12:22:11.607Z,19.73
2018-04-16T12:24:41.480Z,18.83
2018-04-16T12:27:10.663Z,19.20
2018-04-16T12:29:39.735Z,18.87
2018-04-16T12:32:08.842Z,18.03
2018-04-16T12:34:37.915Z,19.20
2018-04-16T12:37:07.021Z,18.00
2018-04-16T12:39:36.176Z,17.30
2018-04-16T12:42:05.290Z,16.37
2018-04-16T12:44:35.142Z,15.77
2018-04-16T12:47:05.017Z,16.50
2018-04-16T12:49:34.192Z,16.93
2018-04-16T12:52:03.999Z,17.77
2018-04-16T12:54:34.041Z,16.40
2018-04-16T12:57:03.118Z,16.83
2018-04-16T12:59:32.199Z,16.07
2018-04-16T13:02:01.345Z,15.90
2018-04-16T13:04:30.523Z,18.53
2018-04-16T13:06:59.660Z,18.30
2018-04-16T13:09:28.741Z,19.23
2018-04-16T13:11:57.842Z,21.97
2018-04-16T13:14:27.192Z,23.80
2018-04-16T13:16:56.287Z,25.30
2018-04-16T13:19:25.404Z,22.57
2018-04-16T13:21:54.493Z,22.70
2018-04-16T13:24:23.598Z,22.10
2018-04-16T13:26:52.691Z,19.50
2018-04-16T13:29:21.804Z,20.70
2018-04-16T13:31:50.940Z,20.70
2018-04-16T13:34:20.824Z,20.47
2018-04-16T13:36:50.741Z,19.77
2018-04-16T13:39:19.831Z,16.90
2018-04-16T13:41:48.922Z,17.43
2018-04-16T13:44:18.000Z,16.70
2018-04-16T13:46:47.084Z,17.60
2018-04-16T13:49:16.938Z,16.80
2018-04-16T13:51:46.031Z,17.17
2018-04-16T13:54:15.897Z,16.47
2018-04-16T13:56:44.980Z,19.13
2018-04-16T13:59:14.089Z,21.92
2018-04-16T14:01:43.162Z,20.07
2018-04-16T14:04:12.271Z,19.03
2018-04-16T14:06:41.362Z,18.33
2018-04-16T14:09:11.480Z,17.50
2018-04-16T14:11:40.551Z,18.87
2018-04-16T14:14:10.420Z,19.50
2018-04-16T14:16:39.505Z,19.60
2018-04-16T14:19:08.608Z,19.90
2018-04-16T14:21:37.690Z,19.33
2018-04-16T14:24:06.768Z,21.03
2018-04-16T14:26:35.907Z,20.87
2018-04-16T14:29:05.020Z,21.20
2018-04-16T14:31:34.151Z,23.33
2018-04-16T14:34:04.002Z,28.87
2018-04-16T14:36:33.171Z,20.53
2018-04-16T14:39:02.327Z,21.93
2018-04-16T14:41:31.437Z,20.10
2018-04-16T14:44:00.521Z,27.60
2018-04-16T14:46:30.359Z,24.07
2018-04-16T14:49:00.803Z,22.87
2018-04-16T14:51:29.881Z,28.40
2018-04-16T14:53:59.050Z,25.40
2018-04-16T14:56:28.159Z,25.50
2018-04-16T14:58:57.299Z,27.07
2018-04-16T15:01:26.411Z,26.23
2018-04-16T15:03:55.545Z,25.57
2018-04-16T15:06:25.420Z,28.97
2018-04-16T15:08:54.836Z,28.80
2018-04-16T15:11:23.911Z,29.03
2018-04-16T15:13:53.763Z,29.97
2018-04-16T15:16:22.911Z,30.30
2018-04-16T15:18:52.031Z,30.07
2018-04-16T15:21:21.148Z,30.70
2018-04-16T15:23:50.268Z,33.00
2018-04-16T15:26:20.123Z,33.27
2018-04-16T15:28:49.232Z,34.30
2018-04-16T15:31:18.351Z,33.97
2018-04-16T15:33:47.473Z,36.77
2018-04-16T15:36:16.644Z,34.70
2018-04-16T15:38:46.532Z,36.70
2018-04-16T15:41:15.653Z,36.40
2018-04-16T15:43:44.805Z,35.67
2018-04-16T15:46:14.720Z,36.33
2018-04-16T15:48:44.606Z,36.30
2018-04-16T15:51:13.751Z,37.33
2018-04-16T15:53:42.840Z,36.97
2018-04-16T15:56:11.919Z,38.17
2018-04-16T15:58:41.027Z,36.07
2018-04-16T16:01:10.159Z,36.73
2018-04-16T16:03:39.286Z,36.73
2018-04-16T16:06:08.396Z,38.50
2018-04-16T16:08:37.512Z,39.23
2018-04-16T16:11:06.594Z,36.37
2018-04-16T16:13:35.705Z,38.83
2018-04-16T16:16:04.831Z,39.23
2018-04-16T16:18:34.712Z,38.50
2018-04-16T16:21:03.799Z,38.17
2018-04-16T16:23:33.687Z,38.23
2018-04-16T16:26:02.826Z,35.73
2018-04-16T16:28:31.911Z,37.50
2018-04-16T16:31:01.066Z,36.33
2018-04-16T16:33:30.915Z,35.30
2018-04-16T16:36:00.027Z,36.20
2018-04-16T16:38:29.151Z,37.03
2018-04-16T16:40:58.231Z,38.83
2018-04-16T16:43:28.108Z,39.50
2018-04-16T16:45:57.254Z,38.70
2018-04-16T16:48:26.405Z,38.10
2018-04-16T16:50:55.524Z,39.70
2018-04-16T16:53:24.605Z,38.40
2018-04-16T16:55:54.480Z,37.63
2018-04-16T16:58:23.668Z,38.27
2018-04-16T17:00:52.746Z,40.60
2018-04-16T17:03:22.591Z,39.40
2018-04-16T17:05:52.460Z,39.07
2018-04-16T17:08:21.643Z,39.47
2018-04-16T17:10:50.783Z,39.70
2018-04-16T17:13:19.898Z,39.20
2018-04-16T17:15:49.048Z,39.60
2018-04-16T17:18:18.897Z,42.27
2018-04-16T17:20:48.004Z,39.20
2018-04-16T17:23:17.092Z,41.07
2018-04-16T17:25:47.032Z,43.83
2018-04-16T17:28:16.908Z,44.77
2018-04-16T17:30:46.048Z,47.67
2018-04-16T17:33:15.196Z,45.27
2018-04-16T17:35:44.344Z,47.80
2018-04-16T17:38:13.414Z,47.40
2018-04-16T17:40:42.536Z,47.80
2018-04-16T17:43:11.623Z,44.87
2018-04-16T17:45:41.524Z,50.80
2018-04-16T17:48:10.648Z,46.47
2018-04-16T17:50:39.731Z,47.70
2018-04-16T17:53:08.885Z,47.10
2018-04-16T17:55:38.726Z,47.10
2018-04-16T17:58:08.609Z,43.33
2018-04-16T18:00:37.743Z,44.90
2018-04-16T18:03:07.629Z,43.77
2018-04-16T18:05:36.826Z,45.50
2018-04-16T18:08:05.933Z,46.30
2018-04-16T18:10:35.009Z,44.93
2018-04-16T18:13:05.840Z,47.87
2018-04-16T18:15:34.923Z,46.77
2018-04-16T18:18:04.003Z,44.63
2018-04-16T18:20:33.160Z,47.50
2018-04-16T18:23:02.242Z,46.70
2018-04-16T18:25:31.346Z,48.03
2018-04-16T18:28:00.425Z,47.47
2018-04-16T18:30:30.356Z,47.33
2018-04-16T18:32:59.506Z,47.80
2018-04-16T18:35:28.666Z,45.73
2018-04-16T18:37:57.778Z,46.83
2018-04-16T18:40:28.985Z,44.83
2018-04-16T18:42:58.068Z,46.50
2018-04-16T18:45:27.949Z,46.53
2018-04-16T18:47:57.143Z,50.50
2018-04-16T18:50:26.236Z,45.80
2018-04-16T18:52:55.371Z,46.17
2018-04-16T18:55:24.491Z,48.33
2018-04-16T18:57:53.633Z,48.37
2018-04-16T19:00:23.508Z,48.27
2018-04-16T19:02:52.636Z,45.90
2018-04-16T19:05:21.756Z,46.67
2018-04-16T19:07:50.886Z,47.13
2018-04-16T19:10:20.136Z,48.60
2018-04-16T19:12:49.220Z,48.33
2018-04-16T19:15:19.067Z,47.53
2018-04-16T19:17:53.864Z,45.80
2018-04-16T19:20:28.643Z,47.83
2018-04-16T19:22:58.487Z,48.30
2018-04-16T19:25:27.680Z,47.67
2018-04-16T19:28:02.299Z,48.07
2018-04-16T19:30:31.577Z,48.30
2018-04-16T19:33:06.199Z,48.40
2018-04-16T19:35:35.352Z,47.40
2018-04-16T19:38:04.431Z,46.17
2018-04-16T19:40:33.619Z,46.77
2018-04-16T19:43:03.522Z,47.33
2018-04-16T19:45:32.611Z,48.53
2018-04-16T19:48:01.841Z,47.27
2018-04-16T19:50:30.968Z,48.53
2018-04-16T19:53:00.814Z,49.50
2018-04-16T19:55:36.095Z,47.27
2018-04-16T19:58:10.830Z,47.10
2018-04-16T20:00:39.912Z,45.93
2018-04-16T20:03:15.477Z,46.67
2018-04-16T20:05:45.483Z,48.30
2018-04-16T20:08:14.570Z,46.90
2018-04-16T20:10:43.716Z,49.63
2018-04-16T20:13:13.618Z,47.37
2018-04-16T20:15:42.724Z,45.43
2018-04-16T20:18:11.838Z,48.63
2018-04-16T20:20:40.952Z,47.90
2018-04-16T20:23:10.069Z,46.47
2018-04-16T20:25:39.189Z,41.63
2018-04-16T20:28:08.277Z,41.07
2018-04-16T20:30:37.424Z,37.93
2018-04-16T20:33:07.361Z,41.67
2018-04-16T20:35:37.212Z,41.73
2018-04-16T20:38:06.340Z,38.13
2018-04-16T20:40:35.423Z,36.40
2018-04-16T20:43:04.587Z,38.03
2018-04-16T20:45:33.675Z,36.80
2018-04-16T20:48:02.809Z,36.40
2018-04-16T20:50:31.922Z,35.57
2018-04-16T20:53:01.092Z,32.87
2018-04-16T20:55:30.210Z,34.50
2018-04-16T20:57:59.316Z,33.63
2018-04-16T21:00:28.404Z,35.77
2018-04-16T21:02:58.345Z,33.60
2018-04-16T21:05:27.456Z,34.77
2018-04-16T21:07:56.610Z,35.10
2018-04-16T21:10:25.701Z,36.63
2018-04-16T21:12:54.820Z,36.70
2018-04-16T21:15:23.979Z,35.40
2018-04-16T21:17:54.073Z,38.27
2018-04-16T21:20:23.959Z,36.80
2018-04-16T21:22:53.119Z,37.40
2018-04-16T21:25:22.262Z,38.73
2018-04-16T21:27:52.323Z,38.60
2018-04-16T21:30:21.499Z,37.87
2018-04-16T21:32:50.676Z,41.03
2018-04-16T21:35:19.885Z,40.17
2018-04-16T21:37:49.016Z,40.33
2018-04-16T21:40:18.137Z,41.33
2018-04-16T21:42:47.251Z,43.23
2018-04-16T21:45:17.155Z,44.83
2018-04-16T21:47:46.316Z,42.43
2018-04-16T21:50:15.433Z,43.00
2018-04-16T21:52:44.653Z,44.93
2018-04-16T21:55:13.740Z,43.67
2018-04-16T21:57:43.580Z,46.97
2018-04-16T22:00:12.697Z,46.30
2018-04-16T22:02:41.816Z,48.27
2018-04-16T22:05:10.923Z,45.03
2018-04-16T22:07:40.031Z,49.20
2018-04-16T22:10:09.139Z,48.77
2018-04-16T22:12:38.311Z,44.73
2018-04-16T22:15:07.398Z,45.87
2018-04-16T22:17:36.478Z,46.70
2018-04-16T22:20:05.648Z,47.80
2018-04-16T22:22:34.731Z,49.90
2018-04-16T22:25:03.837Z,47.47
2018-04-16T22:27:32.947Z,48.90
2018-04-16T22:30:02.832Z,48.37
2018-04-16T22:32:32.679Z,48.83
2018-04-16T22:35:01.837Z,50.10
2018-04-16T22:37:30.928Z,48.97
2018-04-16T22:40:00.002Z,47.37
2018-04-16T22:42:29.076Z,47.57
2018-04-16T22:44:58.228Z,48.57
2018-04-16T22:47:27.315Z,49.70
2018-04-16T22:49:57.196Z,49.93
2018-04-16T22:52:26.312Z,49.23
2018-04-16T22:54:55.487Z,48.50
2018-04-16T22:57:24.596Z,51.03
2018-04-16T22:59:53.712Z,48.50
2018-04-16T23:02:22.819Z,50.40
2018-04-16T23:04:51.906Z,51.70
2018-04-16T23:07:21.789Z,51.28
2018-04-16T23:09:50.907Z,52.17
2018-04-16T23:12:19.999Z,53.35
2018-04-16T23:14:49.884Z,52.88
2018-04-16T23:17:20.111Z,50.77
2018-04-16T23:19:49.191Z,52.37
2018-04-16T23:22:18.350Z,50.05
2018-04-16T23:24:47.465Z,50.75
2018-04-16T23:27:16.546Z,48.40
2018-04-16T23:29:45.659Z,53.70
2018-04-16T23:32:15.523Z,51.87
2018-04-16T23:34:44.644Z,52.10
2018-04-16T23:37:13.735Z,50.40
2018-04-16T23:39:43.645Z,49.83
2018-04-16T23:42:12.718Z,52.10
2018-04-16T23:44:41.837Z,48.47
2018-04-16T23:47:10.954Z,51.20
2018-04-16T23:49:40.035Z,50.67
2018-04-16T23:52:09.150Z,51.47
2018-04-16T23:54:38.274Z,48.72
2018-04-16T23:57:08.135Z,47.03
2018-04-16T23:59:37.275Z,47.37
